sensor_id;sensor_type;location;lat;lon;timestamp;P1;durP1;ratioP1;P2;durP2;ratioP2
13795;SDS011;40911;51.552;9.874;2022-12-18T00:01:25;20.07;;;13.17;;
13795;SDS011;40911;51.552;9.874;2022-12-18T00:03:48;22.77;;;14.57;;
13795;SDS011;40911;51.552;9.874;2022-12-18T00:06:10;27.00;;;14.13;;
13795;SDS011;40911;51.552;9.874;2022-12-18T00:08:34;18.87;;;12.90;;
13795;SDS011;40911;51.552;9.874;2022-12-18T00:10:58;24.63;;;15.17;;
13795;SDS011;40911;51.552;9.874;2022-12-18T00:13:24;21.27;;;12.73;;
13795;SDS011;40911;51.552;9.874;2022-12-18T00:15:47;23.50;;;13.63;;
13795;SDS011;40911;51.552;9.874;2022-12-18T00:18:09;34.83;;;16.07;;
13795;SDS011;40911;51.552;9.874;2022-12-18T00:20:35;26.20;;;13.80;;
13795;SDS011;40911;51.552;9.874;2022-12-18T00:22:57;22.70;;;15.17;;
13795;SDS011;40911;51.552;9.874;2022-12-18T00:25:19;21.70;;;14.27;;
13795;SDS011;40911;51.552;9.874;2022-12-18T00:27:40;25.53;;;13.70;;
13795;SDS011;40911;51.552;9.874;2022-12-18T00:30:02;30.57;;;14.73;;
13795;SDS011;40911;51.552;9.874;2022-12-18T00:32:26;26.17;;;14.43;;
13795;SDS011;40911;51.552;9.874;2022-12-18T00:34:48;26.33;;;14.83;;
13795;SDS011;40911;51.552;9.874;2022-12-18T00:37:10;27.87;;;14.80;;
13795;SDS011;40911;51.552;9.874;2022-12-18T00:39:32;22.20;;;14.17;;
13795;SDS011;40911;51.552;9.874;2022-12-18T00:41:53;25.37;;;14.47;;
13795;SDS011;40911;51.552;9.874;2022-12-18T00:44:33;24.53;;;13.80;;
13795;SDS011;40911;51.552;9.874;2022-12-18T00:46:54;24.73;;;14.40;;
13795;SDS011;40911;51.552;9.874;2022-12-18T00:49:18;20.93;;;14.93;;
13795;SDS011;40911;51.552;9.874;2022-12-18T00:51:40;26.80;;;14.23;;
13795;SDS011;40911;51.552;9.874;2022-12-18T00:54:02;24.27;;;14.37;;
13795;SDS011;40911;51.552;9.874;2022-12-18T00:56:24;23.10;;;14.17;;
13795;SDS011;40911;51.552;9.874;2022-12-18T00:58:46;24.60;;;14.83;;
13795;SDS011;40911;51.552;9.874;2022-12-18T01:01:08;22.10;;;14.30;;
13795;SDS011;40911;51.552;9.874;2022-12-18T01:03:30;25.13;;;14.97;;
13795;SDS011;40911;51.552;9.874;2022-12-18T01:05:53;26.07;;;15.10;;
13795;SDS011;40911;51.552;9.874;2022-12-18T01:08:15;23.83;;;14.63;;
13795;SDS011;40911;51.552;9.874;2022-12-18T01:10:39;27.17;;;14.70;;
13795;SDS011;40911;51.552;9.874;2022-12-18T01:13:01;24.23;;;14.50;;
13795;SDS011;40911;51.552;9.874;2022-12-18T01:15:23;24.47;;;14.23;;
13795;SDS011;40911;51.552;9.874;2022-12-18T01:17:45;28.80;;;15.10;;
13795;SDS011;40911;51.552;9.874;2022-12-18T01:20:07;29.87;;;15.40;;
13795;SDS011;40911;51.552;9.874;2022-12-18T01:22:31;24.50;;;14.67;;
13795;SDS011;40911;51.552;9.874;2022-12-18T01:24:53;30.60;;;16.23;;
13795;SDS011;40911;51.552;9.874;2022-12-18T01:27:15;25.87;;;14.67;;
13795;SDS011;40911;51.552;9.874;2022-12-18T01:29:37;30.73;;;16.10;;
13795;SDS011;40911;51.552;9.874;2022-12-18T01:31:58;20.03;;;13.83;;
13795;SDS011;40911;51.552;9.874;2022-12-18T01:34:20;21.73;;;13.90;;
13795;SDS011;40911;51.552;9.874;2022-12-18T01:36:42;25.43;;;15.47;;
13795;SDS011;40911;51.552;9.874;2022-12-18T01:39:07;24.03;;;14.33;;
13795;SDS011;40911;51.552;9.874;2022-12-18T01:41:32;29.63;;;17.20;;
13795;SDS011;40911;51.552;9.874;2022-12-18T01:47:03;26.87;;;15.83;;
13795;SDS011;40911;51.552;9.874;2022-12-18T01:49:26;31.70;;;16.40;;
13795;SDS011;40911;51.552;9.874;2022-12-18T01:51:47;32.20;;;15.83;;
13795;SDS011;40911;51.552;9.874;2022-12-18T01:54:10;21.13;;;12.57;;
13795;SDS011;40911;51.552;9.874;2022-12-18T01:56:32;22.17;;;13.27;;
13795;SDS011;40911;51.552;9.874;2022-12-18T01:58:55;22.63;;;13.73;;
13795;SDS011;40911;51.552;9.874;2022-12-18T02:01:21;25.57;;;14.33;;
13795;SDS011;40911;51.552;9.874;2022-12-18T02:03:44;22.77;;;14.13;;
13795;SDS011;40911;51.552;9.874;2022-12-18T02:06:07;23.83;;;13.80;;
13795;SDS011;40911;51.552;9.874;2022-12-18T02:08:36;24.50;;;13.40;;
13795;SDS011;40911;51.552;9.874;2022-12-18T02:11:05;17.90;;;12.50;;
13795;SDS011;40911;51.552;9.874;2022-12-18T02:13:30;19.67;;;12.70;;
13795;SDS011;40911;51.552;9.874;2022-12-18T02:15:58;24.17;;;13.20;;
13795;SDS011;40911;51.552;9.874;2022-12-18T02:18:25;20.03;;;13.17;;
13795;SDS011;40911;51.552;9.874;2022-12-18T02:20:53;21.80;;;13.27;;
13795;SDS011;40911;51.552;9.874;2022-12-18T02:23:23;20.57;;;12.67;;
13795;SDS011;40911;51.552;9.874;2022-12-18T02:25:55;22.60;;;12.32;;
13795;SDS011;40911;51.552;9.874;2022-12-18T02:28:35;16.37;;;11.87;;
13795;SDS011;40911;51.552;9.874;2022-12-18T02:30:59;18.30;;;12.37;;
13795;SDS011;40911;51.552;9.874;2022-12-18T02:33:25;21.73;;;12.23;;
13795;SDS011;40911;51.552;9.874;2022-12-18T02:35:48;23.27;;;12.70;;
13795;SDS011;40911;51.552;9.874;2022-12-18T02:38:11;22.90;;;13.87;;
13795;SDS011;40911;51.552;9.874;2022-12-18T02:40:34;20.60;;;13.43;;
13795;SDS011;40911;51.552;9.874;2022-12-18T02:43:06;21.63;;;12.77;;
13795;SDS011;40911;51.552;9.874;2022-12-18T02:45:29;25.43;;;12.67;;
13795;SDS011;40911;51.552;9.874;2022-12-18T02:47:50;24.17;;;13.37;;
13795;SDS011;40911;51.552;9.874;2022-12-18T02:50:13;17.73;;;12.17;;
13795;SDS011;40911;51.552;9.874;2022-12-18T02:52:42;21.70;;;13.50;;
13795;SDS011;40911;51.552;9.874;2022-12-18T02:55:15;22.55;;;13.10;;
13795;SDS011;40911;51.552;9.874;2022-12-18T02:57:48;21.90;;;13.37;;
13795;SDS011;40911;51.552;9.874;2022-12-18T03:00:16;22.87;;;13.27;;
13795;SDS011;40911;51.552;9.874;2022-12-18T03:02:42;21.00;;;13.07;;
13795;SDS011;40911;51.552;9.874;2022-12-18T03:05:10;20.03;;;13.47;;
13795;SDS011;40911;51.552;9.874;2022-12-18T03:07:35;22.47;;;13.50;;
13795;SDS011;40911;51.552;9.874;2022-12-18T03:10:00;20.63;;;13.43;;
13795;SDS011;40911;51.552;9.874;2022-12-18T03:12:23;20.70;;;13.37;;
13795;SDS011;40911;51.552;9.874;2022-12-18T03:14:52;20.40;;;13.03;;
13795;SDS011;40911;51.552;9.874;2022-12-18T03:17:20;22.57;;;13.23;;
13795;SDS011;40911;51.552;9.874;2022-12-18T03:19:45;21.03;;;13.77;;
13795;SDS011;40911;51.552;9.874;2022-12-18T03:22:08;22.70;;;13.43;;
13795;SDS011;40911;51.552;9.874;2022-12-18T03:24:32;20.43;;;12.17;;
13795;SDS011;40911;51.552;9.874;2022-12-18T03:27:00;20.93;;;13.27;;
13795;SDS011;40911;51.552;9.874;2022-12-18T03:29:25;23.53;;;12.93;;
13795;SDS011;40911;51.552;9.874;2022-12-18T03:31:52;20.13;;;12.63;;
13795;SDS011;40911;51.552;9.874;2022-12-18T03:34:19;19.57;;;12.50;;
13795;SDS011;40911;51.552;9.874;2022-12-18T03:36:44;24.93;;;13.37;;
13795;SDS011;40911;51.552;9.874;2022-12-18T03:39:06;20.27;;;13.30;;
13795;SDS011;40911;51.552;9.874;2022-12-18T03:41:28;18.80;;;12.97;;
13795;SDS011;40911;51.552;9.874;2022-12-18T03:43:55;24.90;;;12.30;;
13795;SDS011;40911;51.552;9.874;2022-12-18T03:46:25;24.53;;;12.87;;
13795;SDS011;40911;51.552;9.874;2022-12-18T03:48:51;20.17;;;13.33;;
13795;SDS011;40911;51.552;9.874;2022-12-18T03:51:23;19.47;;;13.47;;
13795;SDS011;40911;51.552;9.874;2022-12-18T03:53:50;19.83;;;13.07;;
13795;SDS011;40911;51.552;9.874;2022-12-18T03:56:16;25.97;;;13.50;;
13795;SDS011;40911;51.552;9.874;2022-12-18T03:58:39;21.60;;;13.03;;
13795;SDS011;40911;51.552;9.874;2022-12-18T04:01:03;25.63;;;13.47;;
13795;SDS011;40911;51.552;9.874;2022-12-18T04:03:28;22.17;;;12.90;;
13795;SDS011;40911;51.552;9.874;2022-12-18T04:05:52;18.57;;;12.77;;
13795;SDS011;40911;51.552;9.874;2022-12-18T04:08:17;24.20;;;14.00;;
13795;SDS011;40911;51.552;9.874;2022-12-18T04:10:41;21.07;;;12.97;;
13795;SDS011;40911;51.552;9.874;2022-12-18T04:13:03;21.53;;;12.13;;
13795;SDS011;40911;51.552;9.874;2022-12-18T04:15:24;22.70;;;12.80;;
13795;SDS011;40911;51.552;9.874;2022-12-18T04:17:47;22.10;;;13.73;;
13795;SDS011;40911;51.552;9.874;2022-12-18T04:20:10;22.23;;;12.80;;
13795;SDS011;40911;51.552;9.874;2022-12-18T04:22:32;23.53;;;12.00;;
13795;SDS011;40911;51.552;9.874;2022-12-18T04:24:55;17.73;;;12.77;;
13795;SDS011;40911;51.552;9.874;2022-12-18T04:27:17;21.07;;;12.63;;
13795;SDS011;40911;51.552;9.874;2022-12-18T04:29:39;21.57;;;13.40;;
13795;SDS011;40911;51.552;9.874;2022-12-18T04:32:01;26.57;;;14.53;;
13795;SDS011;40911;51.552;9.874;2022-12-18T04:34:22;23.50;;;12.83;;
13795;SDS011;40911;51.552;9.874;2022-12-18T04:36:44;27.53;;;14.37;;
13795;SDS011;40911;51.552;9.874;2022-12-18T04:39:06;21.63;;;13.10;;
13795;SDS011;40911;51.552;9.874;2022-12-18T04:41:30;21.83;;;13.20;;
13795;SDS011;40911;51.552;9.874;2022-12-18T04:43:51;21.50;;;12.93;;
13795;SDS011;40911;51.552;9.874;2022-12-18T04:46:13;23.30;;;13.77;;
13795;SDS011;40911;51.552;9.874;2022-12-18T04:48:35;20.13;;;13.30;;
13795;SDS011;40911;51.552;9.874;2022-12-18T04:50:57;20.73;;;12.90;;
13795;SDS011;40911;51.552;9.874;2022-12-18T04:53:19;20.90;;;13.13;;
13795;SDS011;40911;51.552;9.874;2022-12-18T04:55:41;19.73;;;12.30;;
13795;SDS011;40911;51.552;9.874;2022-12-18T04:58:04;21.03;;;13.77;;
13795;SDS011;40911;51.552;9.874;2022-12-18T05:00:26;18.80;;;12.43;;
13795;SDS011;40911;51.552;9.874;2022-12-18T05:02:47;23.93;;;12.87;;
13795;SDS011;40911;51.552;9.874;2022-12-18T05:05:09;20.83;;;12.27;;
13795;SDS011;40911;51.552;9.874;2022-12-18T05:07:31;20.83;;;12.77;;
13795;SDS011;40911;51.552;9.874;2022-12-18T05:09:53;22.37;;;13.07;;
13795;SDS011;40911;51.552;9.874;2022-12-18T05:12:15;22.20;;;13.27;;
13795;SDS011;40911;51.552;9.874;2022-12-18T05:14:38;19.50;;;13.43;;
13795;SDS011;40911;51.552;9.874;2022-12-18T05:17:00;24.30;;;13.10;;
13795;SDS011;40911;51.552;9.874;2022-12-18T05:19:21;20.20;;;12.73;;
13795;SDS011;40911;51.552;9.874;2022-12-18T05:21:43;20.00;;;12.67;;
13795;SDS011;40911;51.552;9.874;2022-12-18T05:24:05;20.83;;;12.93;;
13795;SDS011;40911;51.552;9.874;2022-12-18T05:26:27;18.43;;;12.77;;
13795;SDS011;40911;51.552;9.874;2022-12-18T05:28:49;18.90;;;12.40;;
13795;SDS011;40911;51.552;9.874;2022-12-18T05:31:13;20.73;;;13.20;;
13795;SDS011;40911;51.552;9.874;2022-12-18T05:33:35;22.17;;;16.57;;
13795;SDS011;40911;51.552;9.874;2022-12-18T05:35:57;23.73;;;13.27;;
13795;SDS011;40911;51.552;9.874;2022-12-18T05:38:22;21.37;;;12.60;;
13795;SDS011;40911;51.552;9.874;2022-12-18T05:40:45;23.03;;;12.77;;
13795;SDS011;40911;51.552;9.874;2022-12-18T05:43:07;22.17;;;12.70;;
13795;SDS011;40911;51.552;9.874;2022-12-18T05:45:28;21.70;;;12.77;;
13795;SDS011;40911;51.552;9.874;2022-12-18T05:47:52;18.50;;;12.60;;
13795;SDS011;40911;51.552;9.874;2022-12-18T05:50:13;23.60;;;13.57;;
13795;SDS011;40911;51.552;9.874;2022-12-18T05:52:35;23.50;;;13.47;;
13795;SDS011;40911;51.552;9.874;2022-12-18T05:54:57;24.63;;;13.20;;
13795;SDS011;40911;51.552;9.874;2022-12-18T05:57:20;22.70;;;14.87;;
13795;SDS011;40911;51.552;9.874;2022-12-18T05:59:41;16.47;;;12.53;;
13795;SDS011;40911;51.552;9.874;2022-12-18T06:02:03;20.97;;;14.13;;
13795;SDS011;40911;51.552;9.874;2022-12-18T06:04:27;23.17;;;14.10;;
13795;SDS011;40911;51.552;9.874;2022-12-18T06:06:52;19.87;;;14.63;;
13795;SDS011;40911;51.552;9.874;2022-12-18T06:09:13;21.83;;;14.17;;
13795;SDS011;40911;51.552;9.874;2022-12-18T06:11:35;22.03;;;13.90;;
13795;SDS011;40911;51.552;9.874;2022-12-18T06:13:58;22.47;;;14.30;;
13795;SDS011;40911;51.552;9.874;2022-12-18T06:16:20;22.43;;;14.90;;
13795;SDS011;40911;51.552;9.874;2022-12-18T06:18:42;22.57;;;14.97;;
13795;SDS011;40911;51.552;9.874;2022-12-18T06:21:05;19.50;;;14.63;;
13795;SDS011;40911;51.552;9.874;2022-12-18T06:23:27;21.63;;;15.40;;
13795;SDS011;40911;51.552;9.874;2022-12-18T06:25:48;21.43;;;14.13;;
13795;SDS011;40911;51.552;9.874;2022-12-18T06:28:10;23.63;;;14.77;;
13795;SDS011;40911;51.552;9.874;2022-12-18T06:30:32;17.57;;;14.17;;
13795;SDS011;40911;51.552;9.874;2022-12-18T06:32:54;21.03;;;13.47;;
13795;SDS011;40911;51.552;9.874;2022-12-18T06:35:16;20.30;;;12.30;;
13795;SDS011;40911;51.552;9.874;2022-12-18T06:37:39;19.37;;;13.43;;
13795;SDS011;40911;51.552;9.874;2022-12-18T06:40:01;20.13;;;13.20;;
13795;SDS011;40911;51.552;9.874;2022-12-18T06:42:24;19.13;;;12.63;;
13795;SDS011;40911;51.552;9.874;2022-12-18T06:44:46;18.93;;;12.97;;
13795;SDS011;40911;51.552;9.874;2022-12-18T06:47:07;19.90;;;12.87;;
13795;SDS011;40911;51.552;9.874;2022-12-18T06:49:29;22.37;;;13.17;;
13795;SDS011;40911;51.552;9.874;2022-12-18T06:51:51;22.03;;;13.77;;
13795;SDS011;40911;51.552;9.874;2022-12-18T06:54:14;18.47;;;12.77;;
13795;SDS011;40911;51.552;9.874;2022-12-18T06:56:36;20.37;;;12.77;;
13795;SDS011;40911;51.552;9.874;2022-12-18T06:58:58;21.77;;;13.37;;
13795;SDS011;40911;51.552;9.874;2022-12-18T07:01:19;20.67;;;13.67;;
13795;SDS011;40911;51.552;9.874;2022-12-18T07:03:41;19.43;;;14.97;;
13795;SDS011;40911;51.552;9.874;2022-12-18T07:06:03;25.97;;;14.33;;
13795;SDS011;40911;51.552;9.874;2022-12-18T07:08:26;20.33;;;13.83;;
13795;SDS011;40911;51.552;9.874;2022-12-18T07:10:49;23.13;;;13.93;;
13795;SDS011;40911;51.552;9.874;2022-12-18T07:13:11;20.93;;;14.13;;
13795;SDS011;40911;51.552;9.874;2022-12-18T07:15:33;20.27;;;13.87;;
13795;SDS011;40911;51.552;9.874;2022-12-18T07:17:54;20.60;;;12.57;;
13795;SDS011;40911;51.552;9.874;2022-12-18T07:20:16;22.90;;;13.60;;
13795;SDS011;40911;51.552;9.874;2022-12-18T07:22:38;17.20;;;13.10;;
13795;SDS011;40911;51.552;9.874;2022-12-18T07:25:00;18.83;;;12.73;;
13795;SDS011;40911;51.552;9.874;2022-12-18T07:27:23;18.97;;;13.90;;
13795;SDS011;40911;51.552;9.874;2022-12-18T07:29:45;19.77;;;13.00;;
13795;SDS011;40911;51.552;9.874;2022-12-18T07:32:07;20.03;;;13.73;;
13795;SDS011;40911;51.552;9.874;2022-12-18T07:34:29;16.87;;;12.27;;
13795;SDS011;40911;51.552;9.874;2022-12-18T07:36:50;25.43;;;13.47;;
13795;SDS011;40911;51.552;9.874;2022-12-18T07:39:12;18.87;;;12.57;;
13795;SDS011;40911;51.552;9.874;2022-12-18T07:41:34;21.10;;;13.57;;
13795;SDS011;40911;51.552;9.874;2022-12-18T07:43:57;21.37;;;13.00;;
13795;SDS011;40911;51.552;9.874;2022-12-18T07:46:19;21.00;;;12.90;;
13795;SDS011;40911;51.552;9.874;2022-12-18T07:48:41;18.83;;;13.43;;
13795;SDS011;40911;51.552;9.874;2022-12-18T07:51:04;22.83;;;13.43;;
13795;SDS011;40911;51.552;9.874;2022-12-18T07:53:27;18.57;;;13.00;;
13795;SDS011;40911;51.552;9.874;2022-12-18T07:55:49;21.33;;;13.57;;
13795;SDS011;40911;51.552;9.874;2022-12-18T07:58:15;22.47;;;14.13;;
13795;SDS011;40911;51.552;9.874;2022-12-18T08:00:38;21.77;;;12.73;;
13795;SDS011;40911;51.552;9.874;2022-12-18T08:03:00;20.03;;;13.10;;
13795;SDS011;40911;51.552;9.874;2022-12-18T08:05:22;23.33;;;14.30;;
13795;SDS011;40911;51.552;9.874;2022-12-18T08:07:44;19.97;;;12.53;;
13795;SDS011;40911;51.552;9.874;2022-12-18T08:10:06;19.37;;;12.67;;
13795;SDS011;40911;51.552;9.874;2022-12-18T08:12:28;21.33;;;14.43;;
13795;SDS011;40911;51.552;9.874;2022-12-18T08:14:50;20.47;;;13.27;;
13795;SDS011;40911;51.552;9.874;2022-12-18T08:17:13;23.80;;;14.27;;
13795;SDS011;40911;51.552;9.874;2022-12-18T08:19:35;26.03;;;14.87;;
13795;SDS011;40911;51.552;9.874;2022-12-18T08:21:57;25.20;;;14.37;;
13795;SDS011;40911;51.552;9.874;2022-12-18T08:24:19;22.20;;;14.17;;
13795;SDS011;40911;51.552;9.874;2022-12-18T08:26:40;24.17;;;14.83;;
13795;SDS011;40911;51.552;9.874;2022-12-18T08:29:02;17.57;;;13.57;;
13795;SDS011;40911;51.552;9.874;2022-12-18T08:31:24;25.17;;;15.47;;
13795;SDS011;40911;51.552;9.874;2022-12-18T08:33:49;24.83;;;14.00;;
13795;SDS011;40911;51.552;9.874;2022-12-18T08:36:12;23.87;;;14.70;;
13795;SDS011;40911;51.552;9.874;2022-12-18T08:38:34;20.03;;;14.80;;
13795;SDS011;40911;51.552;9.874;2022-12-18T08:40:58;26.43;;;15.17;;
13795;SDS011;40911;51.552;9.874;2022-12-18T08:43:20;21.50;;;14.50;;
13795;SDS011;40911;51.552;9.874;2022-12-18T08:45:59;22.07;;;14.40;;
13795;SDS011;40911;51.552;9.874;2022-12-18T08:48:21;27.50;;;14.50;;
13795;SDS011;40911;51.552;9.874;2022-12-18T08:50:44;68.73;;;22.33;;
13795;SDS011;40911;51.552;9.874;2022-12-18T08:53:15;65.83;;;22.67;;
13795;SDS011;40911;51.552;9.874;2022-12-18T08:55:36;57.87;;;20.10;;
13795;SDS011;40911;51.552;9.874;2022-12-18T08:57:58;47.27;;;18.70;;
13795;SDS011;40911;51.552;9.874;2022-12-18T09:00:20;58.43;;;20.17;;
13795;SDS011;40911;51.552;9.874;2022-12-18T09:02:42;38.87;;;18.20;;
13795;SDS011;40911;51.552;9.874;2022-12-18T09:05:04;27.63;;;17.20;;
13795;SDS011;40911;51.552;9.874;2022-12-18T09:07:27;29.40;;;16.30;;
13795;SDS011;40911;51.552;9.874;2022-12-18T09:16:41;25.77;;;15.00;;
13795;SDS011;40911;51.552;9.874;2022-12-18T09:19:03;27.50;;;15.30;;
13795;SDS011;40911;51.552;9.874;2022-12-18T09:21:27;22.73;;;15.43;;
13795;SDS011;40911;51.552;9.874;2022-12-18T09:23:52;24.90;;;15.43;;
13795;SDS011;40911;51.552;9.874;2022-12-18T09:26:19;26.40;;;16.37;;
13795;SDS011;40911;51.552;9.874;2022-12-18T09:28:41;23.80;;;14.23;;
13795;SDS011;40911;51.552;9.874;2022-12-18T09:31:05;23.23;;;15.63;;
13795;SDS011;40911;51.552;9.874;2022-12-18T09:33:29;26.33;;;15.27;;
13795;SDS011;40911;51.552;9.874;2022-12-18T09:35:51;23.77;;;15.17;;
13795;SDS011;40911;51.552;9.874;2022-12-18T09:38:14;25.57;;;15.87;;
13795;SDS011;40911;51.552;9.874;2022-12-18T09:40:41;24.63;;;16.60;;
13795;SDS011;40911;51.552;9.874;2022-12-18T09:43:05;27.17;;;15.80;;
13795;SDS011;40911;51.552;9.874;2022-12-18T09:45:34;29.63;;;16.63;;
13795;SDS011;40911;51.552;9.874;2022-12-18T09:48:05;30.13;;;16.87;;
13795;SDS011;40911;51.552;9.874;2022-12-18T09:50:38;30.53;;;17.23;;
13795;SDS011;40911;51.552;9.874;2022-12-18T09:53:02;24.03;;;15.30;;
13795;SDS011;40911;51.552;9.874;2022-12-18T09:55:31;24.17;;;14.63;;
13795;SDS011;40911;51.552;9.874;2022-12-18T09:58:19;22.92;;;13.93;;
13795;SDS011;40911;51.552;9.874;2022-12-18T10:00:47;21.03;;;13.13;;
13795;SDS011;40911;51.552;9.874;2022-12-18T10:06:07;18.98;;;13.40;;
13795;SDS011;40911;51.552;9.874;2022-12-18T10:08:37;17.83;;;12.10;;
13795;SDS011;40911;51.552;9.874;2022-12-18T10:11:16;40.35;;;15.00;;
13795;SDS011;40911;51.552;9.874;2022-12-18T10:13:49;34.40;;;15.48;;
13795;SDS011;40911;51.552;9.874;2022-12-18T10:16:16;28.65;;;14.93;;
13795;SDS011;40911;51.552;9.874;2022-12-18T10:18:58;17.65;;;13.05;;
13795;SDS011;40911;51.552;9.874;2022-12-18T10:21:30;20.35;;;13.77;;
13795;SDS011;40911;51.552;9.874;2022-12-18T10:23:59;16.20;;;12.18;;
13795;SDS011;40911;51.552;9.874;2022-12-18T10:26:26;20.45;;;12.60;;
13795;SDS011;40911;51.552;9.874;2022-12-18T10:31:12;16.70;;;13.10;;
13795;SDS011;40911;51.552;9.874;2022-12-18T10:33:38;15.60;;;12.23;;
13795;SDS011;40911;51.552;9.874;2022-12-18T10:36:01;15.32;;;11.73;;
13795;SDS011;40911;51.552;9.874;2022-12-18T10:38:25;15.05;;;11.55;;
13795;SDS011;40911;51.552;9.874;2022-12-18T10:40:49;12.60;;;10.65;;
13795;SDS011;40911;51.552;9.874;2022-12-18T10:43:24;13.50;;;10.65;;
13795;SDS011;40911;51.552;9.874;2022-12-18T10:45:57;15.65;;;11.75;;
13795;SDS011;40911;51.552;9.874;2022-12-18T10:48:21;15.88;;;11.40;;
13795;SDS011;40911;51.552;9.874;2022-12-18T10:50:46;17.63;;;12.25;;
13795;SDS011;40911;51.552;9.874;2022-12-18T10:53:14;14.88;;;11.32;;
13795;SDS011;40911;51.552;9.874;2022-12-18T10:55:44;15.90;;;11.63;;
13795;SDS011;40911;51.552;9.874;2022-12-18T10:58:16;15.35;;;11.20;;
13795;SDS011;40911;51.552;9.874;2022-12-18T11:01:01;16.85;;;10.52;;
13795;SDS011;40911;51.552;9.874;2022-12-18T11:03:29;13.73;;;10.20;;
13795;SDS011;40911;51.552;9.874;2022-12-18T11:05:54;10.95;;;9.63;;
13795;SDS011;40911;51.552;9.874;2022-12-18T11:08:23;12.90;;;9.75;;
13795;SDS011;40911;51.552;9.874;2022-12-18T11:13:15;14.35;;;9.48;;
13795;SDS011;40911;51.552;9.874;2022-12-18T11:18:03;9.30;;;8.32;;
13795;SDS011;40911;51.552;9.874;2022-12-18T11:20:34;14.18;;;9.10;;
13795;SDS011;40911;51.552;9.874;2022-12-18T11:22:59;11.52;;;8.98;;
13795;SDS011;40911;51.552;9.874;2022-12-18T11:25:23;11.93;;;9.18;;
13795;SDS011;40911;51.552;9.874;2022-12-18T11:27:56;10.93;;;8.25;;
13795;SDS011;40911;51.552;9.874;2022-12-18T11:30:22;13.23;;;9.35;;
13795;SDS011;40911;51.552;9.874;2022-12-18T11:32:51;13.15;;;10.13;;
13795;SDS011;40911;51.552;9.874;2022-12-18T11:35:17;11.68;;;9.15;;
13795;SDS011;40911;51.552;9.874;2022-12-18T11:37:42;12.15;;;9.30;;
13795;SDS011;40911;51.552;9.874;2022-12-18T11:40:09;13.15;;;10.45;;
13795;SDS011;40911;51.552;9.874;2022-12-18T11:42:35;11.13;;;9.65;;
13795;SDS011;40911;51.552;9.874;2022-12-18T11:45:08;12.02;;;9.68;;
13795;SDS011;40911;51.552;9.874;2022-12-18T11:47:49;13.38;;;9.15;;
13795;SDS011;40911;51.552;9.874;2022-12-18T11:50:18;12.27;;;9.90;;
13795;SDS011;40911;51.552;9.874;2022-12-18T11:52:43;11.27;;;8.60;;
13795;SDS011;40911;51.552;9.874;2022-12-18T11:57:33;11.07;;;9.32;;
13795;SDS011;40911;51.552;9.874;2022-12-18T12:00:03;15.02;;;9.45;;
13795;SDS011;40911;51.552;9.874;2022-12-18T12:02:36;12.95;;;8.93;;
13795;SDS011;40911;51.552;9.874;2022-12-18T12:05:13;12.38;;;9.25;;
13795;SDS011;40911;51.552;9.874;2022-12-18T12:07:58;17.48;;;9.40;;
13795;SDS011;40911;51.552;9.874;2022-12-18T12:10:34;19.73;;;9.45;;
13795;SDS011;40911;51.552;9.874;2022-12-18T12:13:14;12.68;;;8.80;;
13795;SDS011;40911;51.552;9.874;2022-12-18T12:15:49;14.73;;;9.30;;
13795;SDS011;40911;51.552;9.874;2022-12-18T12:18:24;12.20;;;9.30;;
13795;SDS011;40911;51.552;9.874;2022-12-18T12:20:58;15.15;;;9.23;;
13795;SDS011;40911;51.552;9.874;2022-12-18T12:23:34;15.70;;;9.80;;
13795;SDS011;40911;51.552;9.874;2022-12-18T12:26:03;20.57;;;9.43;;
13795;SDS011;40911;51.552;9.874;2022-12-18T12:28:34;12.38;;;10.02;;
13795;SDS011;40911;51.552;9.874;2022-12-18T12:31:11;14.18;;;9.90;;
13795;SDS011;40911;51.552;9.874;2022-12-18T12:33:47;24.45;;;11.95;;
13795;SDS011;40911;51.552;9.874;2022-12-18T12:36:17;19.10;;;11.82;;
13795;SDS011;40911;51.552;9.874;2022-12-18T12:38:43;19.73;;;12.43;;
13795;SDS011;40911;51.552;9.874;2022-12-18T12:41:11;16.85;;;11.23;;
13795;SDS011;40911;51.552;9.874;2022-12-18T12:43:49;15.75;;;10.60;;
13795;SDS011;40911;51.552;9.874;2022-12-18T12:46:14;14.45;;;10.02;;
13795;SDS011;40911;51.552;9.874;2022-12-18T12:48:40;16.73;;;10.32;;
13795;SDS011;40911;51.552;9.874;2022-12-18T12:51:08;21.58;;;12.18;;
13795;SDS011;40911;51.552;9.874;2022-12-18T12:53:34;15.20;;;9.95;;
13795;SDS011;40911;51.552;9.874;2022-12-18T12:55:58;17.35;;;12.65;;
13795;SDS011;40911;51.552;9.874;2022-12-18T12:58:23;13.80;;;9.88;;
13795;SDS011;40911;51.552;9.874;2022-12-18T13:00:53;16.65;;;12.43;;
13795;SDS011;40911;51.552;9.874;2022-12-18T13:03:22;12.35;;;9.35;;
13795;SDS011;40911;51.552;9.874;2022-12-18T13:05:51;15.30;;;9.52;;
13795;SDS011;40911;51.552;9.874;2022-12-18T13:08:23;13.38;;;9.90;;
13795;SDS011;40911;51.552;9.874;2022-12-18T13:10:46;13.95;;;11.73;;
13795;SDS011;40911;51.552;9.874;2022-12-18T13:13:08;15.45;;;9.30;;
13795;SDS011;40911;51.552;9.874;2022-12-18T13:15:32;12.43;;;9.43;;
13795;SDS011;40911;51.552;9.874;2022-12-18T13:18:17;11.52;;;8.93;;
13795;SDS011;40911;51.552;9.874;2022-12-18T13:20:42;11.15;;;8.20;;
13795;SDS011;40911;51.552;9.874;2022-12-18T13:23:19;12.68;;;9.00;;
13795;SDS011;40911;51.552;9.874;2022-12-18T13:25:49;17.63;;;14.02;;
13795;SDS011;40911;51.552;9.874;2022-12-18T13:28:12;14.80;;;11.63;;
13795;SDS011;40911;51.552;9.874;2022-12-18T13:30:45;13.02;;;8.85;;
13795;SDS011;40911;51.552;9.874;2022-12-18T13:33:38;10.65;;;8.63;;
13795;SDS011;40911;51.552;9.874;2022-12-18T13:36:09;13.38;;;9.35;;
13795;SDS011;40911;51.552;9.874;2022-12-18T13:38:36;17.63;;;12.23;;
13795;SDS011;40911;51.552;9.874;2022-12-18T13:40:59;12.38;;;10.07;;
13795;SDS011;40911;51.552;9.874;2022-12-18T13:43:27;31.90;;;14.95;;
13795;SDS011;40911;51.552;9.874;2022-12-18T13:45:58;37.42;;;16.90;;
13795;SDS011;40911;51.552;9.874;2022-12-18T13:48:23;22.88;;;13.10;;
13795;SDS011;40911;51.552;9.874;2022-12-18T13:50:57;51.28;;;22.20;;
13795;SDS011;40911;51.552;9.874;2022-12-18T13:53:24;21.60;;;11.82;;
13795;SDS011;40911;51.552;9.874;2022-12-18T13:55:49;20.60;;;11.93;;
13795;SDS011;40911;51.552;9.874;2022-12-18T13:58:11;11.88;;;9.77;;
13795;SDS011;40911;51.552;9.874;2022-12-18T14:02:55;12.82;;;9.50;;
13795;SDS011;40911;51.552;9.874;2022-12-18T14:05:21;11.85;;;9.02;;
13795;SDS011;40911;51.552;9.874;2022-12-18T14:11:04;12.38;;;9.05;;
13795;SDS011;40911;51.552;9.874;2022-12-18T14:13:29;13.05;;;8.85;;
13795;SDS011;40911;51.552;9.874;2022-12-18T14:15:59;11.18;;;9.65;;
13795;SDS011;40911;51.552;9.874;2022-12-18T14:22:16;11.25;;;8.40;;
13795;SDS011;40911;51.552;9.874;2022-12-18T14:25:05;13.68;;;9.32;;
13795;SDS011;40911;51.552;9.874;2022-12-18T14:27:43;22.45;;;12.90;;
13795;SDS011;40911;51.552;9.874;2022-12-18T14:30:26;15.38;;;9.93;;
13795;SDS011;40911;51.552;9.874;2022-12-18T14:32:59;10.50;;;8.05;;
13795;SDS011;40911;51.552;9.874;2022-12-18T14:35:26;15.68;;;10.77;;
13795;SDS011;40911;51.552;9.874;2022-12-18T14:37:48;27.88;;;14.32;;
13795;SDS011;40911;51.552;9.874;2022-12-18T14:42:52;11.18;;;9.20;;
13795;SDS011;40911;51.552;9.874;2022-12-18T14:45:31;14.10;;;9.68;;
13795;SDS011;40911;51.552;9.874;2022-12-18T14:47:57;9.30;;;8.27;;